Time;durP1;ratioP1;P1;durP2;ratioP2;P2;SDS_P1;SDS_P2;PMS_P1;PMS_P2;Temp;Humidity;BMP_temperature;BMP_pressure;BME280_temperature;BME280_humidity;BME280_pressure;Samples;Min_cycle;Max_cycle;Signal;HPM_P1;HPM_P2
2022/01/15 00:00:36;;;;;;;18.67;5.43;;;6.70;99.90;;;;;;5039791;28;20254;-68
2022/01/15 00:03:06;;;;;;;13.30;4.40;;;6.70;99.90;;;;;;5044062;28;20378;-68
2022/01/15 00:05:33;;;;;;;12.53;3.90;;;6.60;99.90;;;;;;5040940;28;20664;-68
2022/01/15 00:08:03;;;;;;;19.50;5.40;;;6.60;99.90;;;;;;5040134;28;20560;-68
2022/01/15 00:10:30;;;;;;;8.80;3.97;;;6.60;99.90;;;;;;5027163;28;20202;-68
2022/01/15 00:12:59;;;;;;;16.13;4.53;;;6.60;99.90;;;;;;5024048;28;20416;-68
2022/01/15 00:15:31;;;;;;;12.03;4.83;;;6.60;99.90;;;;;;5038163;28;20841;-68
2022/01/15 00:18:05;;;;;;;11.60;4.50;;;6.60;99.90;;;;;;5038584;28;20239;-68
2022/01/15 00:20:31;;;;;;;19.13;4.83;;;6.60;99.90;;;;;;5046130;28;20694;-68
2022/01/15 00:22:59;;;;;;;7.00;2.50;;;6.60;99.90;;;;;;5022368;28;22154;-68
2022/01/15 00:25:31;;;;;;;5.83;2.80;;;6.50;99.90;;;;;;5034980;28;20639;-66
2022/01/15 00:27:59;;;;;;;8.67;3.77;;;6.60;99.90;;;;;;5045301;28;20658;-66
2022/01/15 00:30:26;;;;;;;9.30;3.63;;;6.60;99.90;;;;;;5045198;28;20187;-66
2022/01/15 00:32:54;;;;;;;10.57;3.00;;;6.50;99.90;;;;;;5039601;28;21063;-67
2022/01/15 00:35:23;;;;;;;12.60;3.47;;;6.50;99.90;;;;;;5031695;28;20199;-67
2022/01/15 00:37:50;;;;;;;13.07;3.53;;;6.50;99.90;;;;;;5034926;28;20542;-64
2022/01/15 00:40:19;;;;;;;12.10;2.97;;;6.40;99.90;;;;;;5037875;28;20449;-64
2022/01/15 00:42:46;;;;;;;6.83;2.77;;;6.40;99.90;;;;;;5036191;28;20276;-65
2022/01/15 00:45:21;;;;;;;12.63;2.80;;;6.30;99.90;;;;;;5039732;28;20281;-65
2022/01/15 00:47:50;;;;;;;16.40;3.43;;;6.30;99.90;;;;;;5033539;28;20219;-65
2022/01/15 00:50:18;;;;;;;9.47;2.50;;;6.30;99.90;;;;;;5034653;28;20191;-64
2022/01/15 00:52:44;;;;;;;9.17;2.40;;;6.30;99.90;;;;;;5031774;28;20195;-64
2022/01/15 00:55:14;;;;;;;7.17;2.70;;;6.30;99.90;;;;;;5030067;28;20184;-64
2022/01/15 00:57:41;;;;;;;9.70;2.47;;;6.30;99.90;;;;;;5041242;28;20196;-65
2022/01/15 01:00:13;;;;;;;6.47;2.23;;;6.30;99.90;;;;;;5038060;28;20188;-65
2022/01/15 01:02:40;;;;;;;4.07;2.00;;;6.30;99.90;;;;;;5038268;28;20561;-65
2022/01/15 01:05:07;;;;;;;4.17;1.90;;;6.30;99.90;;;;;;5035681;28;20656;-64
2022/01/15 01:07:34;;;;;;;9.90;2.50;;;6.30;99.90;;;;;;5023530;28;20314;-64
2022/01/15 01:12:55;;;;;;;4.77;2.63;;;6.30;99.90;;;;;;5032502;28;20661;-64
2022/01/15 01:23:17;;;;;;;16.07;5.53;;;6.40;99.90;;;;;;5036775;28;20192;-64
2022/01/15 01:25:47;;;;;;;17.00;6.13;;;6.40;99.90;;;;;;5033941;28;20699;-64
2022/01/15 01:28:26;;;;;;;5.30;3.00;;;6.40;99.90;;;;;;5033092;28;20199;-64
2022/01/15 01:30:59;;;;;;;7.50;2.40;;;6.30;99.90;;;;;;5016495;28;20203;-64
2022/01/15 01:38:48;;;;;;;12.90;4.83;;;6.30;99.90;;;;;;5037307;28;20211;-64
2022/01/15 01:41:18;;;;;;;7.60;3.00;;;6.30;99.90;;;;;;5037456;28;20195;-64
2022/01/15 01:43:55;;;;;;;7.83;2.03;;;6.40;99.90;;;;;;5037833;28;20192;-64
2022/01/15 01:48:54;;;;;;;8.93;2.40;;;6.30;99.90;;;;;;5038534;28;20207;-65
2022/01/15 01:51:34;;;;;;;4.20;1.90;;;6.30;99.90;;;;;;5038727;28;20206;-64
2022/01/15 01:54:05;;;;;;;5.90;3.03;;;6.30;99.90;;;;;;5037569;28;20202;-65
2022/01/15 01:56:32;;;;;;;5.43;2.20;;;6.30;99.90;;;;;;5037962;28;20302;-65
2022/01/15 01:59:00;;;;;;;5.63;2.33;;;6.30;99.90;;;;;;5035119;28;20304;-65
2022/01/15 02:01:28;;;;;;;8.67;2.43;;;6.30;99.90;;;;;;5024739;28;20191;-65
2022/01/15 02:03:55;;;;;;;9.70;2.30;;;6.30;99.90;;;;;;5034286;28;20192;-65
2022/01/15 02:06:22;;;;;;;7.60;3.00;;;6.20;99.90;;;;;;5051594;28;20215;-63
2022/01/15 02:08:50;;;;;;;12.97;3.23;;;6.20;99.90;;;;;;5038156;28;20253;-64
2022/01/15 02:11:17;;;;;;;15.17;4.50;;;6.20;99.90;;;;;;5037621;28;20636;-64
2022/01/15 02:13:46;;;;;;;8.30;3.23;;;6.20;99.90;;;;;;5038445;28;20203;-66
2022/01/15 02:16:14;;;;;;;27.67;9.57;;;6.20;99.90;;;;;;5034235;28;20226;-65
2022/01/15 02:18:41;;;;;;;9.83;3.67;;;6.20;99.90;;;;;;5031190;28;20210;-65
2022/01/15 02:23:45;;;;;;;14.63;5.23;;;6.10;99.90;;;;;;5037871;28;20215;-65
2022/01/15 02:26:20;;;;;;;8.30;3.47;;;6.10;99.90;;;;;;5055903;28;20207;-65
2022/01/15 02:28:57;;;;;;;14.47;4.57;;;6.10;99.90;;;;;;5036875;28;20203;-65
2022/01/15 02:31:26;;;;;;;6.50;2.80;;;6.10;99.90;;;;;;5038400;28;20361;-65
2022/01/15 02:33:57;;;;;;;18.07;6.10;;;6.20;99.90;;;;;;5034300;28;20504;-65
2022/01/15 02:36:33;;;;;;;13.23;5.60;;;6.20;99.90;;;;;;5036342;28;20204;-65
2022/01/15 02:39:00;;;;;;;7.63;3.47;;;6.20;99.90;;;;;;5038290;28;20664;-65
2022/01/15 02:41:33;;;;;;;8.33;2.87;;;6.20;99.90;;;;;;5040576;28;20196;-64
2022/01/15 02:44:04;;;;;;;9.03;3.67;;;6.20;99.90;;;;;;5035688;28;20239;-63
2022/01/15 02:49:04;;;;;;;6.23;3.00;;;6.20;99.90;;;;;;5032448;28;20200;-63
2022/01/15 02:51:34;;;;;;;9.73;4.23;;;6.20;99.90;;;;;;5036264;28;20191;-63
2022/01/15 02:54:02;;;;;;;17.97;6.10;;;6.20;99.90;;;;;;5052943;28;20904;-63
2022/01/15 02:56:39;;;;;;;21.07;6.47;;;6.10;99.90;;;;;;5034250;28;20252;-63
2022/01/15 02:59:14;;;;;;;10.77;3.90;;;6.10;99.90;;;;;;5033795;28;20210;-64
2022/01/15 03:01:40;;;;;;;16.30;4.57;;;6.20;99.90;;;;;;5031738;28;21021;-63
2022/01/15 03:04:08;;;;;;;18.10;4.90;;;6.20;99.90;;;;;;5035724;28;20241;-64
2022/01/15 03:06:34;;;;;;;13.17;4.63;;;6.10;99.90;;;;;;5034504;28;20215;-63
2022/01/15 03:09:01;;;;;;;9.20;4.67;;;6.20;99.90;;;;;;5033527;28;20187;-63
2022/01/15 03:11:28;;;;;;;11.33;5.43;;;6.20;99.90;;;;;;5035483;28;20196;-62
2022/01/15 03:13:55;;;;;;;11.20;3.97;;;6.20;99.90;;;;;;5034861;28;20625;-63
2022/01/15 03:16:22;;;;;;;13.77;5.07;;;6.20;99.90;;;;;;5031217;28;20286;-64
2022/01/15 03:18:50;;;;;;;10.40;4.47;;;6.20;99.90;;;;;;5032902;28;20200;-63
2022/01/15 03:21:16;;;;;;;14.33;4.50;;;6.20;99.90;;;;;;5031835;28;20253;-64
2022/01/15 03:23:43;;;;;;;23.40;9.40;;;6.20;99.90;;;;;;5031329;28;20820;-64
2022/01/15 03:26:14;;;;;;;20.57;7.73;;;6.20;99.90;;;;;;5017090;28;20202;-63
2022/01/15 03:28:43;;;;;;;18.73;6.90;;;6.10;99.90;;;;;;5032726;28;20254;-63
2022/01/15 03:31:10;;;;;;;16.87;8.07;;;6.10;99.90;;;;;;5032950;28;20207;-63
2022/01/15 03:33:36;;;;;;;21.87;9.83;;;6.10;99.90;;;;;;5036544;28;20207;-63
2022/01/15 03:36:03;;;;;;;9.20;5.07;;;6.10;99.90;;;;;;5035710;28;20239;-63
2022/01/15 03:38:30;;;;;;;10.60;5.73;;;6.10;99.90;;;;;;5037510;28;20222;-63
2022/01/15 03:40:56;;;;;;;18.87;11.37;;;6.10;99.90;;;;;;5039564;28;20214;-64
2022/01/15 03:43:23;;;;;;;17.53;9.27;;;6.00;99.90;;;;;;5026845;28;20273;-64
2022/01/15 03:45:49;;;;;;;10.70;5.13;;;6.00;99.90;;;;;;5040816;28;20195;-65
2022/01/15 03:48:16;;;;;;;12.73;7.30;;;6.10;99.90;;;;;;5052075;28;20196;-64
2022/01/15 03:50:42;;;;;;;5.73;3.97;;;6.10;99.90;;;;;;5038014;28;20195;-64
2022/01/15 03:53:09;;;;;;;8.43;3.83;;;6.10;99.90;;;;;;5039607;28;20242;-64
2022/01/15 03:55:35;;;;;;;26.37;15.53;;;6.10;99.90;;;;;;5038290;28;20612;-63
2022/01/15 03:58:01;;;;;;;21.60;12.37;;;6.00;99.90;;;;;;5041284;28;20221;-63
2022/01/15 04:00:29;;;;;;;16.27;9.87;;;6.00;99.90;;;;;;5038535;28;20192;-63
2022/01/15 04:02:57;;;;;;;9.50;6.47;;;6.00;99.90;;;;;;5040452;28;20214;-63
2022/01/15 04:05:24;;;;;;;11.37;6.60;;;6.10;99.90;;;;;;5056515;28;20208;-63
2022/01/15 04:07:50;;;;;;;29.47;17.73;;;6.00;99.90;;;;;;5023764;28;20239;-63
2022/01/15 04:10:18;;;;;;;8.07;5.40;;;6.10;99.90;;;;;;5033564;28;20196;-63
2022/01/15 04:12:44;;;;;;;8.77;4.83;;;6.10;99.90;;;;;;5055848;28;20230;-64
2022/01/15 04:15:13;;;;;;;12.63;6.43;;;6.00;99.90;;;;;;5042471;28;20667;-64
2022/01/15 04:17:42;;;;;;;26.13;13.50;;;6.00;99.90;;;;;;5021324;28;20667;-63
2022/01/15 04:20:11;;;;;;;21.27;10.27;;;6.00;99.90;;;;;;5056369;28;20652;-64
2022/01/15 04:22:37;;;;;;;43.33;23.10;;;6.00;99.90;;;;;;5039972;28;20200;-64
2022/01/15 04:25:05;;;;;;;34.10;21.20;;;5.90;99.90;;;;;;5022362;28;20286;-63
2022/01/15 04:27:31;;;;;;;20.37;10.07;;;6.00;99.90;;;;;;5039411;28;20289;-64
2022/01/15 04:30:03;;;;;;;15.27;7.97;;;5.90;99.90;;;;;;5040795;28;20191;-64
2022/01/15 04:32:30;;;;;;;13.70;7.57;;;5.90;99.90;;;;;;5036574;28;20195;-64
2022/01/15 04:34:58;;;;;;;13.37;6.30;;;5.90;99.90;;;;;;5038564;28;20235;-64
2022/01/15 04:37:34;;;;;;;30.30;12.47;;;5.80;99.90;;;;;;5037218;28;20628;-64
2022/01/15 04:40:00;;;;;;;15.87;7.70;;;5.80;99.90;;;;;;5037668;28;20214;-64
2022/01/15 04:42:26;;;;;;;12.00;6.80;;;5.80;99.90;;;;;;5041554;28;20261;-64
2022/01/15 04:44:52;;;;;;;25.87;11.73;;;5.90;99.90;;;;;;5041171;28;20195;-64
2022/01/15 04:47:19;;;;;;;12.40;7.00;;;5.90;99.90;;;;;;5036861;28;20607;-64
2022/01/15 04:49:45;;;;;;;15.10;7.40;;;5.90;99.90;;;;;;5036154;28;20192;-64
2022/01/15 04:52:11;;;;;;;14.67;7.17;;;5.90;99.90;;;;;;5036850;28;20206;-65
2022/01/15 04:54:38;;;;;;;14.97;6.63;;;5.90;99.90;;;;;;5047757;28;20876;-65
2022/01/15 04:57:04;;;;;;;31.07;14.30;;;5.90;99.90;;;;;;5045844;28;20277;-66
2022/01/15 04:59:31;;;;;;;17.33;7.83;;;5.90;99.90;;;;;;5040933;28;20216;-65
2022/01/15 05:01:57;;;;;;;17.37;8.50;;;5.90;99.90;;;;;;5043574;28;20191;-65
2022/01/15 05:04:23;;;;;;;37.10;19.10;;;5.90;99.90;;;;;;5046020;28;20286;-65
2022/01/15 05:06:50;;;;;;;22.33;10.63;;;5.90;99.90;;;;;;5044617;28;20188;-66
2022/01/15 05:09:16;;;;;;;29.60;16.83;;;5.90;99.90;;;;;;5040511;28;20198;-66
2022/01/15 05:11:48;;;;;;;22.40;15.20;;;6.00;99.90;;;;;;5054908;28;20298;-66
2022/01/15 05:14:17;;;;;;;16.97;10.30;;;6.00;99.90;;;;;;5033632;28;20222;-66
2022/01/15 05:16:45;;;;;;;13.40;6.20;;;6.00;99.90;;;;;;5024795;28;20187;-65
2022/01/15 05:19:11;;;;;;;6.40;4.27;;;6.00;99.90;;;;;;5040618;28;20261;-65
2022/01/15 05:21:39;;;;;;;10.00;5.67;;;6.10;99.90;;;;;;5041301;28;20184;-67
2022/01/15 05:24:06;;;;;;;19.50;13.10;;;6.10;99.90;;;;;;5050345;28;20188;-67
2022/01/15 05:26:33;;;;;;;13.20;7.53;;;6.10;99.90;;;;;;5038238;28;20195;-67
2022/01/15 05:29:00;;;;;;;9.20;6.43;;;6.20;99.90;;;;;;5047281;28;20191;-66
2022/01/15 05:31:27;;;;;;;13.87;9.73;;;6.30;99.90;;;;;;5046917;28;20194;-67
2022/01/15 05:33:54;;;;;;;19.70;13.37;;;6.30;99.90;;;;;;5042977;28;20960;-66
2022/01/15 05:36:20;;;;;;;13.27;6.90;;;6.40;99.90;;;;;;5044654;28;20199;-66
2022/01/15 05:38:48;;;;;;;10.57;7.63;;;6.40;99.90;;;;;;5045505;28;20250;-66
2022/01/15 05:41:14;;;;;;;14.03;8.33;;;6.50;99.90;;;;;;5040179;28;20179;-66
2022/01/15 05:43:40;;;;;;;10.97;8.73;;;6.50;99.90;;;;;;5045431;28;20572;-66
2022/01/15 05:46:07;;;;;;;15.30;8.40;;;6.60;99.90;;;;;;5044836;28;20202;-66
2022/01/15 05:48:33;;;;;;;10.87;7.50;;;6.70;99.90;;;;;;5041868;28;20217;-65
2022/01/15 05:51:00;;;;;;;12.53;6.90;;;6.80;99.90;;;;;;5046518;28;20192;-66
2022/01/15 05:53:26;;;;;;;8.17;4.63;;;6.90;99.90;;;;;;5037276;28;20290;-66
2022/01/15 05:55:52;;;;;;;13.10;6.40;;;7.00;99.90;;;;;;5046161;28;20294;-66
2022/01/15 05:58:19;;;;;;;12.43;6.30;;;7.00;99.90;;;;;;5047282;28;20310;-67
2022/01/15 06:00:45;;;;;;;16.07;9.80;;;7.00;99.90;;;;;;5054482;28;20198;-66
2022/01/15 06:03:11;;;;;;;11.77;7.97;;;7.10;99.90;;;;;;5036548;28;20195;-65
2022/01/15 06:05:38;;;;;;;11.20;6.80;;;7.10;99.90;;;;;;5045885;28;20266;-65
2022/01/15 06:08:04;;;;;;;8.63;5.17;;;7.20;99.90;;;;;;5045465;28;20275;-65
2022/01/15 06:10:31;;;;;;;11.47;5.47;;;7.30;99.90;;;;;;5048952;28;20258;-65
2022/01/15 06:12:57;;;;;;;17.87;10.63;;;7.30;99.90;;;;;;5026668;28;20289;-65
2022/01/15 06:15:23;;;;;;;25.63;14.63;;;7.40;99.90;;;;;;5044960;28;20306;-65
2022/01/15 06:17:50;;;;;;;14.97;10.00;;;7.40;99.90;;;;;;5037540;28;20192;-65
2022/01/15 06:20:16;;;;;;;9.47;6.67;;;7.40;99.90;;;;;;5047319;28;20616;-65
2022/01/15 06:22:43;;;;;;;9.33;5.63;;;7.50;99.90;;;;;;5034552;28;20207;-66
2022/01/15 06:25:10;;;;;;;7.50;4.97;;;7.60;99.90;;;;;;5042991;28;20207;-65
2022/01/15 06:27:38;;;;;;;6.13;4.40;;;7.60;99.90;;;;;;5045466;28;20183;-66
2022/01/15 06:30:05;;;;;;;5.63;3.57;;;7.60;99.90;;;;;;5046133;28;20721;-65
2022/01/15 06:32:36;;;;;;;5.97;3.10;;;7.60;99.90;;;;;;5046679;28;20191;-67
2022/01/15 06:35:14;;;;;;;4.43;3.10;;;7.70;99.90;;;;;;5043720;28;20196;-66
2022/01/15 06:37:41;;;;;;;6.23;3.50;;;7.70;99.90;;;;;;5044386;28;20701;-64
2022/01/15 06:40:08;;;;;;;5.87;3.30;;;7.80;99.90;;;;;;5035479;28;20215;-64
2022/01/15 06:42:35;;;;;;;6.47;3.63;;;7.80;99.90;;;;;;5044458;28;20199;-64
2022/01/15 06:45:03;;;;;;;5.73;3.37;;;7.90;99.90;;;;;;5027809;28;20194;-64
2022/01/15 06:47:29;;;;;;;6.50;3.10;;;7.90;99.90;;;;;;5049225;28;21016;-64
2022/01/15 06:49:56;;;;;;;4.00;3.60;;;7.90;99.90;;;;;;5046249;28;20807;-64
2022/01/15 06:52:24;;;;;;;6.93;3.13;;;8.00;99.90;;;;;;5044657;28;20199;-64
2022/01/15 06:54:51;;;;;;;5.70;3.50;;;8.10;99.90;;;;;;5042189;28;20724;-65
2022/01/15 06:57:17;;;;;;;3.53;2.87;;;8.30;99.90;;;;;;5046110;28;20364;-64
2022/01/15 06:59:46;;;;;;;6.53;3.30;;;8.40;99.90;;;;;;5045304;28;20215;-64
2022/01/15 07:02:12;;;;;;;4.70;3.27;;;8.50;99.90;;;;;;5042680;28;20191;-65
2022/01/15 07:04:39;;;;;;;5.47;3.27;;;8.60;99.90;;;;;;5044388;28;20198;-64
2022/01/15 07:07:05;;;;;;;4.10;2.87;;;8.60;99.90;;;;;;5043658;28;20199;-65
2022/01/15 07:09:32;;;;;;;3.33;3.03;;;8.60;99.90;;;;;;5045273;28;20209;-66
2022/01/15 07:11:59;;;;;;;7.80;3.50;;;8.70;99.90;;;;;;5044215;28;20232;-65
2022/01/15 07:14:25;;;;;;;6.70;3.23;;;8.70;99.90;;;;;;5042364;28;20191;-64
2022/01/15 07:16:52;;;;;;;7.13;3.53;;;8.80;99.90;;;;;;5044424;28;20676;-66
2022/01/15 07:19:18;;;;;;;9.43;3.13;;;8.90;99.90;;;;;;5044672;28;20223;-65
2022/01/15 07:21:45;;;;;;;6.27;3.10;;;9.10;99.90;;;;;;5047367;28;20211;-65
2022/01/15 07:24:11;;;;;;;5.63;3.40;;;9.20;99.90;;;;;;5044254;28;20192;-65
2022/01/15 07:26:38;;;;;;;6.20;2.90;;;9.20;99.90;;;;;;5042408;28;20253;-66
2022/01/15 07:29:06;;;;;;;7.23;3.50;;;9.30;99.90;;;;;;5045017;28;20191;-64
2022/01/15 07:31:33;;;;;;;5.37;3.20;;;9.40;99.90;;;;;;5044305;28;20194;-65
2022/01/15 07:33:59;;;;;;;4.37;2.80;;;9.40;99.90;;;;;;5043206;28;20286;-65
2022/01/15 07:36:25;;;;;;;4.23;2.80;;;9.50;99.90;;;;;;5039766;28;20188;-64
2022/01/15 07:38:52;;;;;;;6.27;3.50;;;9.60;99.90;;;;;;5051172;28;20691;-64
2022/01/15 07:41:18;;;;;;;6.20;2.97;;;9.60;99.90;;;;;;5043413;28;20192;-65
2022/01/15 07:43:45;;;;;;;6.07;3.27;;;9.70;99.90;;;;;;5045273;28;20191;-65
2022/01/15 07:46:11;;;;;;;9.87;3.53;;;9.70;99.90;;;;;;5042162;28;20196;-65
2022/01/15 07:48:38;;;;;;;10.30;2.83;;;9.80;99.90;;;;;;5042767;28;20195;-65
2022/01/15 07:51:04;;;;;;;8.33;3.20;;;9.90;99.90;;;;;;5045260;28;20191;-66
2022/01/15 07:53:31;;;;;;;7.53;3.13;;;10.00;99.90;;;;;;5043819;28;20210;-67
2022/01/15 07:55:58;;;;;;;2.97;2.60;;;10.00;99.90;;;;;;5042957;28;21006;-66
2022/01/15 07:58:24;;;;;;;4.17;2.87;;;10.10;99.90;;;;;;5027904;28;20243;-67
2022/01/15 08:00:50;;;;;;;3.40;2.63;;;10.20;99.90;;;;;;5025646;28;20318;-67
2022/01/15 08:03:17;;;;;;;5.37;2.47;;;10.30;99.90;;;;;;5041868;28;20640;-66
2022/01/15 08:05:44;;;;;;;3.70;2.37;;;10.30;99.90;;;;;;5044026;28;20196;-66
2022/01/15 08:08:10;;;;;;;4.57;2.30;;;10.40;99.90;;;;;;5054905;28;20282;-65
2022/01/15 08:10:36;;;;;;;4.17;2.43;;;10.50;99.90;;;;;;5043026;28;20335;-65
2022/01/15 08:13:03;;;;;;;6.20;2.63;;;10.50;99.90;;;;;;5046033;28;20543;-66
2022/01/15 08:15:31;;;;;;;4.87;2.70;;;10.50;99.90;;;;;;5037595;28;20278;-65
2022/01/15 08:17:58;;;;;;;6.23;2.70;;;10.60;99.90;;;;;;5039066;28;20187;-66
2022/01/15 08:20:24;;;;;;;2.50;2.20;;;10.70;99.90;;;;;;5042589;28;20200;-66
2022/01/15 08:22:51;;;;;;;4.33;2.30;;;10.60;99.90;;;;;;5028674;28;20196;-66
2022/01/15 08:25:20;;;;;;;3.17;2.40;;;10.60;99.90;;;;;;5044031;28;20195;-65
2022/01/15 08:27:47;;;;;;;3.17;2.60;;;10.60;99.90;;;;;;5042706;28;20211;-65
2022/01/15 08:30:15;;;;;;;4.77;2.57;;;10.60;99.90;;;;;;5040411;28;20201;-65
2022/01/15 08:32:43;;;;;;;5.67;2.60;;;10.60;99.90;;;;;;5037918;28;20604;-65
2022/01/15 08:35:09;;;;;;;4.67;2.70;;;10.70;99.90;;;;;;5044363;28;20194;-65
2022/01/15 08:37:37;;;;;;;6.17;2.57;;;10.70;99.90;;;;;;5045844;28;20245;-67
2022/01/15 08:40:07;;;;;;;6.20;2.70;;;10.70;99.90;;;;;;5043075;28;20699;-67
2022/01/15 08:42:36;;;;;;;9.93;2.43;;;10.70;99.90;;;;;;5044425;28;20221;-68
2022/01/15 08:45:06;;;;;;;10.90;2.30;;;10.80;99.90;;;;;;5050603;28;20645;-67
2022/01/15 08:47:36;;;;;;;8.53;2.40;;;10.80;99.90;;;;;;5037975;28;20319;-67
2022/01/15 08:50:05;;;;;;;6.00;2.17;;;10.90;99.90;;;;;;5041837;28;20503;-68
2022/01/15 08:52:32;;;;;;;7.80;2.80;;;10.90;99.90;;;;;;5042837;28;20275;-68
2022/01/15 08:54:58;;;;;;;6.50;2.33;;;11.00;99.90;;;;;;5041712;28;20199;-68
2022/01/15 08:57:25;;;;;;;8.90;2.40;;;11.10;99.90;;;;;;5041874;28;20234;-68
2022/01/15 08:59:52;;;;;;;7.53;2.50;;;11.10;99.90;;;;;;5027589;28;20215;-67
2022/01/15 09:02:19;;;;;;;5.90;2.33;;;11.20;99.90;;;;;;5042125;28;20187;-67
2022/01/15 09:04:46;;;;;;;6.73;2.43;;;11.20;99.90;;;;;;5046195;28;20282;-67
2022/01/15 09:07:14;;;;;;;3.47;2.37;;;11.30;99.90;;;;;;5045067;28;20234;-67
2022/01/15 09:09:41;;;;;;;10.40;2.23;;;11.30;99.90;;;;;;5048455;28;20199;-67
2022/01/15 09:12:09;;;;;;;3.27;2.30;;;11.40;99.90;;;;;;5046796;28;20191;-67
2022/01/15 09:14:36;;;;;;;2.97;2.07;;;11.50;99.90;;;;;;5047103;28;20253;-67
2022/01/15 09:17:02;;;;;;;2.47;2.00;;;11.50;99.90;;;;;;5045325;28;20207;-67
2022/01/15 09:19:29;;;;;;;5.00;2.60;;;11.50;99.90;;;;;;5045675;28;20220;-67
2022/01/15 09:21:56;;;;;;;4.43;2.50;;;11.50;99.90;;;;;;5045237;28;20192;-67
2022/01/15 09:24:22;;;;;;;4.43;2.27;;;11.50;99.90;;;;;;5028406;28;20896;-67
2022/01/15 09:32:08;;;;;;;5.37;1.83;;;11.60;99.90;;;;;;5043060;28;20187;-67
2022/01/15 09:34:36;;;;;;;3.53;2.20;;;11.50;99.90;;;;;;5042807;28;20548;-67
2022/01/15 09:37:06;;;;;;;4.33;2.00;;;11.60;99.90;;;;;;5046723;28;20196;-67
2022/01/15 09:39:33;;;;;;;4.83;1.90;;;11.70;99.90;;;;;;5045892;28;20238;-67
2022/01/15 09:42:00;;;;;;;4.63;1.93;;;11.70;99.90;;;;;;5064927;28;20188;-67
2022/01/15 09:44:28;;;;;;;4.53;2.00;;;11.90;99.90;;;;;;5030451;28;20195;-67
2022/01/15 09:46:56;;;;;;;5.70;2.20;;;12.00;99.90;;;;;;5043243;28;20989;-67
2022/01/15 09:49:26;;;;;;;2.90;1.90;;;12.10;99.90;;;;;;5033660;28;20195;-67
2022/01/15 09:51:53;;;;;;;3.77;1.73;;;12.20;99.90;;;;;;5026381;28;20219;-67
2022/01/15 09:54:19;;;;;;;2.30;1.83;;;12.20;99.90;;;;;;5028601;28;20226;-67
2022/01/15 09:56:49;;;;;;;2.37;1.50;;;12.10;99.90;;;;;;5044555;28;20291;-67
2022/01/15 09:59:17;;;;;;;4.60;2.10;;;12.10;99.90;;;;;;5045835;28;20223;-67
2022/01/15 10:01:44;;;;;;;7.50;1.97;;;12.10;99.90;;;;;;5045154;28;20196;-67
2022/01/15 10:04:10;;;;;;;3.37;2.00;;;12.10;99.90;;;;;;5044209;28;20191;-67
2022/01/15 10:06:36;;;;;;;4.70;2.20;;;12.10;99.90;;;;;;5025122;28;20191;-68
2022/01/15 10:09:12;;;;;;;4.10;1.90;;;12.10;99.90;;;;;;5045463;28;20684;-68
2022/01/15 10:11:52;;;;;;;4.60;1.90;;;12.20;99.90;;;;;;5042854;28;20201;-68
2022/01/15 10:14:41;;;;;;;2.47;1.63;;;12.20;99.90;;;;;;5045394;28;20195;-68
2022/01/15 10:17:32;;;;;;;3.00;1.80;;;12.30;99.90;;;;;;5044101;28;20197;-68
2022/01/15 10:20:00;;;;;;;8.00;1.80;;;12.30;99.90;;;;;;5044596;28;20739;-68
2022/01/15 10:22:29;;;;;;;3.00;1.73;;;12.30;99.90;;;;;;5045757;28;20640;-68
2022/01/15 10:25:01;;;;;;;2.77;1.43;;;12.30;99.90;;;;;;5031812;28;20187;-68
2022/01/15 10:27:43;;;;;;;2.17;1.40;;;12.20;99.90;;;;;;5027453;28;20614;-68
2022/01/15 10:30:20;;;;;;;2.97;1.80;;;12.20;99.90;;;;;;5041183;28;20652;-68
2022/01/15 10:33:09;;;;;;;2.10;1.50;;;12.30;99.90;;;;;;5046453;28;20191;-68
2022/01/15 10:35:42;;;;;;;6.83;1.70;;;12.40;99.90;;;;;;5030329;28;20230;-68
2022/01/15 10:38:14;;;;;;;3.97;1.80;;;12.30;99.90;;;;;;5046600;28;20226;-67
2022/01/15 10:40:55;;;;;;;5.20;1.73;;;12.30;99.90;;;;;;5046485;28;20191;-67
2022/01/15 10:43:34;;;;;;;5.27;1.83;;;12.60;99.90;;;;;;5047007;28;20230;-67
2022/01/15 10:46:01;;;;;;;1.80;1.30;;;13.30;99.90;;;;;;5053561;28;20197;-68
2022/01/15 10:48:34;;;;;;;3.67;1.80;;;15.00;99.90;;;;;;5036171;28;20218;-68
2022/01/15 10:51:07;;;;;;;4.57;1.57;;;14.50;99.90;;;;;;5041894;28;20245;-68
2022/01/15 10:53:38;;;;;;;4.73;1.70;;;16.70;99.90;;;;;;5046402;28;20557;-68
2022/01/15 10:56:08;;;;;;;2.00;1.60;;;17.80;99.90;;;;;;5046376;28;20298;-68
2022/01/15 10:58:36;;;;;;;4.33;1.40;;;15.60;99.90;;;;;;5026851;28;20210;-68
2022/01/15 11:01:04;;;;;;;6.20;1.60;;;15.60;99.90;;;;;;5049153;28;20652;-68
2022/01/15 11:03:45;;;;;;;2.10;1.30;;;15.40;99.90;;;;;;5044048;28;20317;-68
2022/01/15 11:06:12;;;;;;;2.57;1.30;;;15.40;99.90;;;;;;5045901;28;20851;-68
2022/01/15 11:08:42;;;;;;;4.27;1.60;;;15.20;99.90;;;;;;5026215;28;20766;-68
2022/01/15 11:11:14;;;;;;;3.03;1.60;;;14.70;99.90;;;;;;5027462;28;20226;-68
2022/01/15 11:13:47;;;;;;;3.63;1.30;;;14.30;99.90;;;;;;5042666;28;20811;-68
2022/01/15 11:16:17;;;;;;;2.30;1.50;;;13.90;99.90;;;;;;5038395;28;20583;-68
2022/01/15 11:18:54;;;;;;;6.63;1.50;;;13.70;99.90;;;;;;5036672;28;20223;-68
2022/01/15 11:21:25;;;;;;;7.13;1.50;;;13.90;99.90;;;;;;5035909;28;20298;-68
2022/01/15 11:23:56;;;;;;;2.93;1.50;;;14.00;99.90;;;;;;5038896;28;20840;-68
2022/01/15 11:26:29;;;;;;;6.60;1.53;;;13.90;99.90;;;;;;5032857;28;20199;-68
2022/01/15 11:28:58;;;;;;;5.83;1.23;;;14.00;99.90;;;;;;5035482;28;20893;-68
2022/01/15 11:31:29;;;;;;;3.27;1.47;;;13.90;99.90;;;;;;5030388;28;20199;-68
2022/01/15 11:34:00;;;;;;;7.20;1.63;;;14.00;99.90;;;;;;5037558;28;20203;-68
2022/01/15 11:36:42;;;;;;;4.37;1.50;;;13.90;99.90;;;;;;5039252;28;20273;-68
2022/01/15 11:39:33;;;;;;;2.67;1.40;;;14.00;99.90;;;;;;5014538;28;20291;-68
2022/01/15 11:42:03;;;;;;;3.17;1.20;;;14.10;99.90;;;;;;5016722;28;20246;-68
2022/01/15 11:44:29;;;;;;;2.53;1.43;;;14.10;99.90;;;;;;5039366;28;21115;-68
2022/01/15 11:47:00;;;;;;;4.33;1.33;;;14.00;99.90;;;;;;5022463;28;20243;-68
2022/01/15 11:49:36;;;;;;;2.27;1.50;;;13.90;99.90;;;;;;5035003;28;20238;-68
2022/01/15 11:52:18;;;;;;;6.63;1.50;;;13.80;99.90;;;;;;5039456;28;20939;-67
2022/01/15 11:55:04;;;;;;;6.97;1.60;;;13.90;99.90;;;;;;5036061;28;20294;-67
2022/01/15 11:57:44;;;;;;;3.60;1.80;;;13.90;99.90;;;;;;5003476;28;20223;-67
2022/01/15 12:00:32;;;;;;;2.70;1.30;;;13.90;99.90;;;;;;5021903;28;20221;-68
2022/01/15 12:03:09;;;;;;;4.47;1.87;;;13.90;99.90;;;;;;5030484;28;20679;-68
2022/01/15 12:05:40;;;;;;;3.20;1.70;;;13.80;99.90;;;;;;5034636;28;20230;-68
2022/01/15 12:08:08;;;;;;;3.17;1.70;;;13.80;99.90;;;;;;5038108;28;20281;-68
2022/01/15 12:10:47;;;;;;;6.20;1.80;;;13.70;99.90;;;;;;5035637;28;20621;-68
2022/01/15 12:13:18;;;;;;;2.60;1.60;;;13.60;99.90;;;;;;5033489;28;20234;-68
2022/01/15 12:15:48;;;;;;;3.57;1.70;;;13.60;99.90;;;;;;5037284;28;20218;-68
2022/01/15 12:18:21;;;;;;;5.80;2.37;;;13.60;99.90;;;;;;5035845;28;20219;-68
2022/01/15 12:20:54;;;;;;;4.47;1.97;;;13.50;99.90;;;;;;5032900;28;20207;-68
2022/01/15 12:23:24;;;;;;;2.07;1.50;;;13.40;99.90;;;;;;5037236;28;20661;-68
2022/01/15 12:25:56;;;;;;;6.80;2.30;;;13.10;99.90;;;;;;5037877;28;20207;-68
2022/01/15 12:28:27;;;;;;;5.13;2.30;;;13.00;99.90;;;;;;5034871;28;20211;-68
2022/01/15 12:30:58;;;;;;;7.07;1.90;;;12.80;99.90;;;;;;5039536;28;20255;-68
2022/01/15 12:33:26;;;;;;;6.33;1.90;;;12.80;99.90;;;;;;5032262;28;20218;-68
2022/01/15 12:35:56;;;;;;;11.33;1.97;;;12.70;99.90;;;;;;5049293;28;20237;-68
2022/01/15 12:38:28;;;;;;;3.90;2.00;;;12.60;99.90;;;;;;5032960;28;20211;-68
2022/01/15 12:41:06;;;;;;;3.63;2.37;;;12.60;99.90;;;;;;5035617;28;20226;-68
2022/01/15 12:43:38;;;;;;;4.27;2.00;;;12.50;99.90;;;;;;5000938;28;20218;-68
2022/01/15 12:46:17;;;;;;;4.67;1.90;;;12.50;99.90;;;;;;5025920;28;20200;-68
2022/01/15 12:48:46;;;;;;;4.83;2.50;;;12.40;99.90;;;;;;5013384;28;20855;-67
2022/01/15 12:51:22;;;;;;;3.40;2.10;;;12.50;99.90;;;;;;5022266;28;20254;-67
2022/01/15 12:53:57;;;;;;;6.17;2.20;;;12.50;99.90;;;;;;5041389;28;20209;-69
2022/01/15 12:56:26;;;;;;;4.60;1.77;;;12.70;99.90;;;;;;5040230;28;20221;-68
2022/01/15 12:58:54;;;;;;;9.80;2.00;;;12.80;99.90;;;;;;5019301;28;20859;-68
2022/01/15 13:01:26;;;;;;;5.27;2.30;;;12.80;99.90;;;;;;5025370;28;20897;-68
2022/01/15 13:03:55;;;;;;;4.50;2.03;;;12.80;99.90;;;;;;5045750;28;20179;-68
2022/01/15 13:06:25;;;;;;;3.63;2.00;;;12.80;99.90;;;;;;5040795;28;20199;-68
2022/01/15 13:08:54;;;;;;;4.83;2.17;;;12.90;99.90;;;;;;5039274;28;20192;-68
2022/01/15 13:11:23;;;;;;;7.30;2.33;;;12.80;99.90;;;;;;5029401;28;20249;-68
2022/01/15 13:13:56;;;;;;;5.83;2.20;;;12.80;99.90;;;;;;5022625;28;21010;-68
2022/01/15 13:16:30;;;;;;;2.90;1.90;;;12.80;99.90;;;;;;5020059;28;20653;-68
2022/01/15 13:19:02;;;;;;;3.13;1.80;;;12.70;99.90;;;;;;5033056;28;20597;-68
2022/01/15 13:21:37;;;;;;;5.73;2.30;;;12.60;99.90;;;;;;5035686;28;20231;-68
2022/01/15 13:24:13;;;;;;;3.87;2.20;;;12.50;99.90;;;;;;5054212;28;20781;-68
2022/01/15 13:26:47;;;;;;;8.20;2.23;;;12.60;99.90;;;;;;5027792;28;20214;-68